Time;durP1;ratioP1;P1;durP2;ratioP2;P2;SDS_P1;SDS_P2;PMS_P1;PMS_P2;Temp;Humidity;BMP_temperature;BMP_pressure;BME280_temperature;BME280_humidity;BME280_pressure;Samples;Min_cycle;Max_cycle;Signal;HPM_P1;HPM_P2
2020/12/30 00:02:03;;;;;;;5.67;3.13;;;;;;;2.17;100.00;96437.16;5095791;28;20211;-65
2020/12/30 00:04:29;;;;;;;3.43;2.90;;;;;;;2.24;100.00;96441.91;5095891;28;20238;-69
2020/12/30 00:06:55;;;;;;;3.00;2.70;;;;;;;2.30;100.00;96441.53;5095821;28;20206;-68
2020/12/30 00:09:22;;;;;;;2.87;2.57;;;;;;;2.33;100.00;96448.31;5095784;28;20680;-68
2020/12/30 00:11:48;;;;;;;3.23;2.93;;;;;;;2.38;100.00;96454.91;5095573;28;20206;-69
2020/12/30 00:14:14;;;;;;;4.63;3.83;;;;;;;2.42;100.00;96452.94;5095751;28;20218;-68
2020/12/30 00:16:40;;;;;;;7.30;4.90;;;;;;;2.42;100.00;96455.53;5095626;28;20602;-69
2020/12/30 00:19:06;;;;;;;6.13;4.23;;;;;;;2.50;100.00;96448.91;5094914;28;20325;-68
2020/12/30 00:21:32;;;;;;;5.17;4.20;;;;;;;2.61;100.00;96454.28;5095566;28;20207;-69
2020/12/30 00:23:58;;;;;;;4.27;3.77;;;;;;;2.57;100.00;96444.97;5093781;28;20550;-68
2020/12/30 00:26:25;;;;;;;5.27;4.03;;;;;;;2.61;100.00;96445.59;5095114;28;20215;-70
2020/12/30 00:28:51;;;;;;;5.17;4.03;;;;;;;2.60;100.00;96443.94;5095205;28;20217;-69
2020/12/30 00:31:17;;;;;;;5.53;3.80;;;;;;;2.55;100.00;96452.06;5095065;28;20211;-70
2020/12/30 00:33:43;;;;;;;5.40;4.00;;;;;;;2.58;100.00;96446.63;5095574;28;20254;-68
2020/12/30 00:36:09;;;;;;;4.17;3.20;;;;;;;2.67;100.00;96459.09;5095361;28;20257;-68
2020/12/30 00:38:35;;;;;;;5.07;4.00;;;;;;;2.68;100.00;96463.38;5094832;28;20212;-69
2020/12/30 00:41:01;;;;;;;4.30;3.57;;;;;;;2.80;100.00;96462.56;5095155;28;20221;-69
2020/12/30 00:43:28;;;;;;;5.90;3.87;;;;;;;2.89;100.00;96467.19;5094884;28;20219;-69
2020/12/30 00:45:53;;;;;;;5.17;3.37;;;;;;;2.99;100.00;96463.03;5095104;28;20211;-69
2020/12/30 00:48:19;;;;;;;5.50;3.80;;;;;;;3.08;100.00;96469.44;5092907;28;20305;-69
2020/12/30 00:50:45;;;;;;;4.63;3.60;;;;;;;3.15;100.00;96473.31;5095081;28;20256;-68
2020/12/30 00:53:11;;;;;;;5.50;4.30;;;;;;;3.21;100.00;96483.34;5094606;28;20214;-69
2020/12/30 00:55:37;;;;;;;5.57;4.00;;;;;;;3.21;100.00;96472.91;5094526;28;20221;-69
2020/12/30 00:58:03;;;;;;;6.17;3.60;;;;;;;3.22;100.00;96472.81;5094534;28;20275;-69
2020/12/30 01:00:30;;;;;;;5.83;3.23;;;;;;;3.22;100.00;96479.78;5094790;28;20563;-69
2020/12/30 01:02:56;;;;;;;3.83;3.20;;;;;;;3.25;100.00;96475.19;5094465;28;20697;-69
2020/12/30 01:05:22;;;;;;;4.53;3.47;;;;;;;3.30;100.00;96477.53;5094646;28;20206;-69
2020/12/30 01:07:48;;;;;;;4.17;3.60;;;;;;;3.26;100.00;96476.03;5094496;28;20297;-68
2020/12/30 01:10:14;;;;;;;3.53;2.93;;;;;;;3.26;100.00;96479.50;5094334;28;20215;-69
2020/12/30 01:12:40;;;;;;;3.57;3.27;;;;;;;3.27;100.00;96483.78;5094657;28;20288;-69
2020/12/30 01:15:06;;;;;;;5.50;3.50;;;;;;;3.23;100.00;96482.28;5092606;28;20293;-68
2020/12/30 01:17:33;;;;;;;4.50;3.63;;;;;;;3.23;100.00;96486.66;5094400;28;20231;-68
2020/12/30 01:19:59;;;;;;;5.27;4.00;;;;;;;3.17;100.00;96487.09;5094368;28;20202;-68
2020/12/30 01:22:25;;;;;;;6.00;4.20;;;;;;;3.14;100.00;96488.16;5094160;28;20246;-68
2020/12/30 01:24:51;;;;;;;5.10;3.70;;;;;;;3.10;100.00;96484.06;5094242;28;20255;-68
2020/12/30 01:27:17;;;;;;;7.63;5.53;;;;;;;3.09;100.00;96490.22;5094288;28;20288;-68
2020/12/30 01:29:43;;;;;;;4.57;3.63;;;;;;;3.10;100.00;96486.66;5093227;28;20382;-68
2020/12/30 01:32:09;;;;;;;5.63;3.77;;;;;;;3.12;100.00;96490.00;5093890;28;20218;-69
2020/12/30 01:34:35;;;;;;;4.13;3.40;;;;;;;3.12;100.00;96494.41;5094329;28;20214;-68
2020/12/30 01:37:01;;;;;;;4.13;3.40;;;;;;;3.14;100.00;96490.75;5093920;28;20226;-68
2020/12/30 01:39:27;;;;;;;4.03;3.30;;;;;;;3.15;100.00;96491.56;5093845;28;20254;-68
2020/12/30 01:41:53;;;;;;;4.00;3.10;;;;;;;3.12;100.00;96497.81;5092539;28;20215;-68
2020/12/30 01:44:19;;;;;;;3.53;2.90;;;;;;;3.16;100.00;96504.53;5094071;28;20707;-68
2020/12/30 01:46:47;;;;;;;4.07;3.27;;;;;;;3.20;100.00;96506.00;5094007;28;20206;-68
2020/12/30 01:49:16;;;;;;;3.13;2.80;;;;;;;3.21;100.00;96499.84;5093604;28;20298;-68
2020/12/30 01:51:44;;;;;;;4.37;3.57;;;;;;;3.25;100.00;96506.50;5093893;28;20226;-69
2020/12/30 01:54:11;;;;;;;4.20;3.50;;;;;;;3.26;100.00;96503.00;5093782;28;20213;-68
2020/12/30 01:56:37;;;;;;;3.60;3.07;;;;;;;3.31;100.00;96500.06;5093577;28;20230;-68
2020/12/30 01:59:06;;;;;;;4.17;3.17;;;;;;;3.33;100.00;96504.25;5093908;28;20211;-67
2020/12/30 02:01:35;;;;;;;3.80;2.80;;;;;;;3.36;100.00;96506.66;5093470;28;20214;-72
2020/12/30 02:04:04;;;;;;;3.10;2.80;;;;;;;3.33;100.00;96508.63;5093405;28;20668;-74
2020/12/30 02:06:31;;;;;;;3.83;2.93;;;;;;;3.34;100.00;96503.31;5091955;28;20211;-72
2020/12/30 02:08:58;;;;;;;3.20;2.30;;;;;;;3.34;100.00;96505.94;5093547;28;20576;-71
2020/12/30 02:11:26;;;;;;;3.33;3.03;;;;;;;3.37;100.00;96510.94;5093325;28;21030;-72
2020/12/30 02:14:06;;;;;;;4.37;3.07;;;;;;;3.45;100.00;96513.88;5093667;28;20230;-68
2020/12/30 02:16:45;;;;;;;5.17;2.70;;;;;;;3.44;100.00;96516.59;5093491;28;20229;-69
2020/12/30 02:19:11;;;;;;;3.80;2.77;;;;;;;3.41;100.00;96519.38;5093179;28;20680;-70
2020/12/30 02:21:37;;;;;;;3.23;2.63;;;;;;;3.36;100.00;96522.31;5093442;28;20615;-69
2020/12/30 02:24:06;;;;;;;3.53;2.80;;;;;;;3.33;100.00;96530.38;5093417;28;20294;-69
2020/12/30 02:26:32;;;;;;;3.70;2.90;;;;;;;3.31;100.00;96523.56;5093186;28;20697;-69
2020/12/30 02:28:58;;;;;;;3.37;2.87;;;;;;;3.20;100.00;96524.28;5093343;28;20217;-69
2020/12/30 02:31:24;;;;;;;3.40;2.90;;;;;;;3.08;100.00;96519.88;5093200;28;20682;-69
2020/12/30 02:33:50;;;;;;;4.00;2.70;;;;;;;2.93;100.00;96527.84;5091421;28;20206;-68
2020/12/30 02:36:16;;;;;;;3.77;3.10;;;;;;;2.85;100.00;96523.13;5092983;28;20210;-69
2020/12/30 02:38:42;;;;;;;4.47;2.80;;;;;;;2.73;100.00;96531.72;5092888;28;20297;-69
2020/12/30 02:41:08;;;;;;;3.87;2.90;;;;;;;2.61;100.00;96535.09;5093335;28;20250;-68
2020/12/30 02:43:35;;;;;;;3.10;2.60;;;;;;;2.60;100.00;96532.59;5097077;28;20264;-69
2020/12/30 02:46:01;;;;;;;3.40;2.80;;;;;;;2.61;100.00;96535.09;5097123;28;20664;-69
2020/12/30 02:48:27;;;;;;;3.50;2.50;;;;;;;2.62;100.00;96531.56;5097236;28;20211;-68
2020/12/30 02:50:53;;;;;;;2.53;2.27;;;;;;;2.79;100.00;96533.94;5097405;28;20215;-68
2020/12/30 02:53:19;;;;;;;2.77;2.37;;;;;;;2.98;100.00;96534.44;5097278;28;20213;-69
2020/12/30 02:55:45;;;;;;;2.30;1.90;;;;;;;3.08;100.00;96545.97;5096859;28;20735;-69
2020/12/30 02:58:11;;;;;;;2.90;2.30;;;;;;;3.16;100.00;96538.47;5095419;28;20235;-68
2020/12/30 03:00:38;;;;;;;1.93;1.80;;;;;;;3.18;100.00;96541.78;5097081;28;20671;-68
2020/12/30 03:03:04;;;;;;;1.80;1.60;;;;;;;3.13;100.00;96538.63;5096704;28;20215;-68
2020/12/30 03:05:30;;;;;;;1.93;1.83;;;;;;;3.04;100.00;96539.25;5097064;28;20209;-68
2020/12/30 03:07:56;;;;;;;2.43;2.00;;;;;;;3.02;100.00;96545.50;5096841;28;20211;-68
2020/12/30 03:10:22;;;;;;;2.30;2.03;;;;;;;3.08;100.00;96545.09;5096877;28;20631;-68
2020/12/30 03:12:48;;;;;;;2.97;2.40;;;;;;;3.12;100.00;96547.41;5096736;28;20322;-68
2020/12/30 03:15:14;;;;;;;2.53;2.30;;;;;;;3.20;100.00;96554.75;5096861;28;20302;-67
2020/12/30 03:17:41;;;;;;;2.00;1.80;;;;;;;3.26;100.00;96549.97;5096394;28;20239;-68
2020/12/30 03:20:07;;;;;;;1.90;1.80;;;;;;;3.18;100.00;96546.19;5096485;28;20704;-68
2020/12/30 03:22:33;;;;;;;2.33;1.60;;;;;;;3.17;100.00;96550.56;5096763;28;20246;-68
2020/12/30 03:24:59;;;;;;;1.93;1.73;;;;;;;3.04;100.00;96538.41;5095043;28;20610;-69
2020/12/30 03:27:25;;;;;;;3.10;2.33;;;;;;;2.99;100.00;96546.53;5096612;28;20207;-70
2020/12/30 03:29:51;;;;;;;2.20;2.00;;;;;;;2.99;100.00;96556.16;5096089;28;20195;-69
2020/12/30 03:32:17;;;;;;;2.17;1.93;;;;;;;2.99;100.00;96551.75;5096550;28;20297;-70
2020/12/30 03:34:43;;;;;;;2.47;1.90;;;;;;;2.99;100.00;96559.59;5096331;28;20721;-71
2020/12/30 03:37:09;;;;;;;2.20;1.83;;;;;;;3.00;100.00;96552.59;5096265;28;20349;-69
2020/12/30 03:39:35;;;;;;;2.23;1.60;;;;;;;3.04;100.00;96562.75;5096365;28;20324;-67
2020/12/30 03:42:01;;;;;;;1.93;1.70;;;;;;;3.03;100.00;96562.81;5095921;28;20314;-67
2020/12/30 03:44:27;;;;;;;1.70;1.50;;;;;;;3.03;100.00;96558.47;5096110;28;20215;-67
2020/12/30 03:46:53;;;;;;;1.40;1.30;;;;;;;3.01;100.00;96557.69;5096248;28;20214;-68
2020/12/30 03:49:19;;;;;;;1.90;1.70;;;;;;;2.99;100.00;96556.97;5096156;28;20218;-71
2020/12/30 03:51:46;;;;;;;1.97;1.70;;;;;;;2.98;100.00;96559.66;5094534;28;20260;-68
2020/12/30 03:54:12;;;;;;;1.53;1.40;;;;;;;2.95;100.00;96559.88;5094991;28;20215;-67
2020/12/30 03:56:38;;;;;;;1.70;1.60;;;;;;;2.90;100.00;96557.56;5095954;28;20207;-67
2020/12/30 03:59:04;;;;;;;2.00;1.57;;;;;;;2.83;100.00;96558.91;5095899;28;20268;-67
2020/12/30 04:01:30;;;;;;;1.63;1.50;;;;;;;2.68;100.00;96556.41;5095923;28;20293;-67
2020/12/30 04:03:56;;;;;;;1.57;1.30;;;;;;;2.56;100.00;96563.22;5095900;28;20223;-68
2020/12/30 04:06:22;;;;;;;2.83;1.40;;;;;;;2.38;100.00;96553.94;5095859;28;20207;-67
2020/12/30 04:08:48;;;;;;;1.63;1.20;;;;;;;2.27;100.00;96556.38;5095773;28;20242;-68
2020/12/30 04:11:14;;;;;;;2.67;1.40;;;;;;;2.13;100.00;96548.56;5095628;28;20211;-68
2020/12/30 04:13:40;;;;;;;1.70;1.60;;;;;;;2.09;100.00;96547.06;5095735;28;20320;-68
2020/12/30 04:16:06;;;;;;;2.30;1.77;;;;;;;1.98;100.00;96554.72;5094566;28;20242;-67
2020/12/30 04:18:32;;;;;;;2.00;1.53;;;;;;;1.95;100.00;96565.31;5095533;28;20266;-67
2020/12/30 04:20:58;;;;;;;2.37;1.40;;;;;;;1.86;100.00;96559.81;5095510;28;20219;-67
2020/12/30 04:23:24;;;;;;;4.20;1.50;;;;;;;1.83;100.00;96560.84;5095366;28;20215;-67
2020/12/30 04:25:51;;;;;;;1.80;1.40;;;;;;;1.86;100.00;96557.22;5095275;28;20260;-67
2020/12/30 04:28:17;;;;;;;2.10;1.80;;;;;;;1.88;100.00;96560.56;5095425;28;20207;-67
2020/12/30 04:30:43;;;;;;;3.67;1.57;;;;;;;1.87;100.00;96564.94;5095346;28;20203;-67
2020/12/30 04:33:09;;;;;;;1.50;1.40;;;;;;;1.84;100.00;96562.50;5095437;28;20207;-68
2020/12/30 04:35:35;;;;;;;2.87;1.57;;;;;;;1.76;100.00;96569.94;5095397;28;20217;-68
2020/12/30 04:38:01;;;;;;;2.40;1.70;;;;;;;1.74;100.00;96571.81;5095010;28;20262;-67
2020/12/30 04:40:28;;;;;;;2.47;1.80;;;;;;;1.74;100.00;96577.03;5095207;28;20217;-66
2020/12/30 04:42:56;;;;;;;2.53;1.53;;;;;;;1.71;100.00;96577.19;5093221;28;20264;-68
2020/12/30 04:45:23;;;;;;;3.00;1.40;;;;;;;1.63;100.00;96575.97;5095147;28;20206;-67
2020/12/30 04:47:52;;;;;;;3.53;1.50;;;;;;;1.65;100.00;96587.97;5095065;28;20214;-68
2020/12/30 04:50:18;;;;;;;2.53;1.40;;;;;;;1.76;100.00;96580.38;5095025;28;20210;-69
2020/12/30 04:52:44;;;;;;;2.97;1.60;;;;;;;1.93;100.00;96585.41;5094869;28;20696;-68
2020/12/30 04:55:11;;;;;;;1.97;1.47;;;;;;;1.94;100.00;96584.50;5095018;28;20660;-69
2020/12/30 04:57:47;;;;;;;3.30;1.60;;;;;;;1.84;100.00;96583.34;5094551;28;20707;-69
2020/12/30 05:00:14;;;;;;;2.27;1.40;;;;;;;1.75;100.00;96588.25;5094710;28;20211;-69
2020/12/30 05:02:48;;;;;;;1.67;1.37;;;;;;;1.55;100.00;96584.25;5094887;28;20244;-66
2020/12/30 05:05:17;;;;;;;3.60;1.70;;;;;;;1.52;100.00;96589.63;5094279;28;20679;-66
2020/12/30 05:07:45;;;;;;;3.30;1.50;;;;;;;1.50;100.00;96591.47;5094790;28;20210;-67
2020/12/30 05:10:11;;;;;;;2.57;1.87;;;;;;;1.54;100.00;96590.34;5092660;28;20214;-67
2020/12/30 05:12:37;;;;;;;3.93;1.70;;;;;;;1.63;100.00;96595.03;5094333;28;20238;-68
2020/12/30 05:15:03;;;;;;;3.47;1.70;;;;;;;1.69;100.00;96599.03;5094283;28;20212;-68
2020/12/30 05:17:30;;;;;;;1.73;1.50;;;;;;;1.72;100.00;96594.50;5094139;28;20271;-67
2020/12/30 05:19:56;;;;;;;2.10;1.43;;;;;;;1.75;100.00;96596.94;5094218;28;20675;-67
2020/12/30 05:22:22;;;;;;;1.43;1.33;;;;;;;1.76;100.00;96605.56;5094536;28;20259;-67
2020/12/30 05:24:49;;;;;;;2.63;1.70;;;;;;;1.73;100.00;96611.78;5094442;28;20238;-67
2020/12/30 05:27:16;;;;;;;2.67;1.80;;;;;;;1.71;100.00;96623.25;5094060;28;20628;-67
2020/12/30 05:29:46;;;;;;;2.63;1.70;;;;;;;1.73;100.00;96621.38;5094187;28;20199;-67
2020/12/30 05:32:11;;;;;;;2.30;1.60;;;;;;;1.75;100.00;96625.56;5093853;28;20210;-67
2020/12/30 05:34:38;;;;;;;2.97;1.67;;;;;;;1.76;100.00;96627.25;5092429;28;20221;-66
2020/12/30 05:37:04;;;;;;;4.33;1.90;;;;;;;1.71;100.00;96628.44;5093792;28;20722;-68
2020/12/30 05:39:32;;;;;;;1.87;1.67;;;;;;;1.68;100.00;96639.03;5094240;28;20578;-68
2020/12/30 05:42:12;;;;;;;2.13;1.60;;;;;;;1.72;100.00;96641.34;5094137;28;20217;-68
2020/12/30 05:44:38;;;;;;;1.70;1.60;;;;;;;1.72;100.00;96643.97;5094008;28;20248;-69
2020/12/30 05:47:15;;;;;;;3.00;1.70;;;;;;;1.73;100.00;96643.03;5093891;28;20638;-69
2020/12/30 05:49:43;;;;;;;1.87;1.53;;;;;;;1.74;100.00;96647.34;5093961;28;20210;-70
2020/12/30 05:52:17;;;;;;;2.93;1.80;;;;;;;1.74;100.00;96649.09;5093877;28;20244;-70
2020/12/30 05:54:48;;;;;;;3.60;1.73;;;;;;;1.82;100.00;96652.94;5093621;28;20687;-68
2020/12/30 05:57:28;;;;;;;1.57;1.40;;;;;;;1.92;100.00;96651.47;5093634;28;20230;-68
2020/12/30 05:59:58;;;;;;;1.60;1.40;;;;;;;2.01;100.00;96658.75;5093119;28;20213;-68
2020/12/30 06:02:26;;;;;;;1.60;1.50;;;;;;;2.03;100.00;96654.25;5092626;28;20691;-68
2020/12/30 06:04:54;;;;;;;4.80;2.10;;;;;;;2.05;100.00;96657.63;5093384;28;20698;-69
2020/12/30 06:07:20;;;;;;;1.90;1.70;;;;;;;2.08;100.00;96652.22;5093654;28;20572;-69
2020/12/30 06:09:51;;;;;;;1.73;1.57;;;;;;;2.10;100.00;96662.56;5093597;28;20242;-70
2020/12/30 06:12:24;;;;;;;2.00;1.33;;;;;;;2.11;100.00;96667.69;5093406;28;20238;-67
2020/12/30 06:14:50;;;;;;;3.57;1.70;;;;;;;2.20;100.00;96664.53;5093596;28;20207;-69
2020/12/30 06:17:25;;;;;;;2.70;1.90;;;;;;;2.21;100.00;96666.22;5092856;28;20260;-71
2020/12/30 06:19:54;;;;;;;2.07;1.40;;;;;;;2.27;100.00;96668.44;5093524;28;20214;-70
2020/12/30 06:22:20;;;;;;;2.10;1.63;;;;;;;2.30;100.00;96665.66;5093572;28;20264;-66
2020/12/30 06:24:50;;;;;;;2.30;1.40;;;;;;;2.36;100.00;96675.72;5093125;28;20206;-69
2020/12/30 06:27:19;;;;;;;2.13;1.70;;;;;;;2.46;100.00;96676.03;5091765;28;20218;-68
2020/12/30 06:29:45;;;;;;;2.83;1.47;;;;;;;2.44;100.00;96678.72;5093152;28;20228;-66
2020/12/30 06:32:11;;;;;;;3.27;1.40;;;;;;;2.43;100.00;96677.03;5093434;28;20634;-67
2020/12/30 06:34:37;;;;;;;2.40;1.73;;;;;;;2.39;100.00;96685.97;5093387;28;20580;-66
2020/12/30 06:37:04;;;;;;;2.37;1.80;;;;;;;2.42;100.00;96693.63;5093048;28;20230;-68
2020/12/30 06:39:30;;;;;;;2.57;1.77;;;;;;;2.41;100.00;96691.94;5093235;28;20207;-67
2020/12/30 06:41:59;;;;;;;2.83;1.73;;;;;;;2.37;100.00;96693.03;5093302;28;20218;-66
2020/12/30 06:44:46;;;;;;;2.67;1.70;;;;;;;2.22;100.00;96699.19;5093243;28;20207;-67
2020/12/30 06:47:15;;;;;;;2.23;1.70;;;;;;;2.10;100.00;96701.66;5087864;28;20210;-67
2020/12/30 06:49:41;;;;;;;1.87;1.60;;;;;;;1.99;100.00;96710.09;5092930;28;20211;-68
2020/12/30 06:52:26;;;;;;;3.43;2.20;;;;;;;1.89;100.00;96706.34;5091872;28;20218;-68
2020/12/30 06:54:52;;;;;;;3.50;2.00;;;;;;;1.79;100.00;96714.78;5093215;28;20280;-69
2020/12/30 06:57:38;;;;;;;3.20;2.07;;;;;;;1.66;100.00;96709.41;5092719;28;20262;-68
2020/12/30 07:00:37;;;;;;;2.93;2.10;;;;;;;1.57;100.00;96715.16;5092957;28;20226;-66
2020/12/30 07:03:17;;;;;;;3.43;2.17;;;;;;;1.48;100.00;96723.47;5092885;28;20246;-66
2020/12/30 07:05:44;;;;;;;3.30;2.27;;;;;;;1.47;100.00;96731.38;5092652;28;20217;-66
2020/12/30 07:08:11;;;;;;;2.73;2.33;;;;;;;1.36;100.00;96721.53;5092740;28;20211;-67
2020/12/30 07:10:42;;;;;;;3.60;2.23;;;;;;;1.26;100.00;96720.38;5092730;28;20203;-66
2020/12/30 07:13:08;;;;;;;2.73;2.40;;;;;;;1.20;100.00;96725.06;5092939;28;20260;-66
2020/12/30 07:15:35;;;;;;;3.70;2.40;;;;;;;1.09;100.00;96730.88;5092855;28;20211;-67
2020/12/30 07:18:04;;;;;;;5.40;2.50;;;;;;;1.05;100.00;96731.94;5092012;28;20230;-68
2020/12/30 07:20:39;;;;;;;3.20;2.47;;;;;;;1.15;100.00;96740.94;5092009;28;20252;-68
2020/12/30 07:23:07;;;;;;;4.60;2.60;;;;;;;1.16;100.00;96732.22;5092919;28;20214;-68
2020/12/30 07:25:34;;;;;;;4.50;2.73;;;;;;;1.28;100.00;96743.72;5092915;28;20237;-68
2020/12/30 07:28:01;;;;;;;5.30;2.70;;;;;;;1.35;100.00;96745.91;5094193;28;20331;-68
2020/12/30 07:30:27;;;;;;;3.53;2.60;;;;;;;1.43;100.00;96746.34;5096578;28;20564;-68
2020/12/30 07:32:54;;;;;;;4.20;2.60;;;;;;;1.47;100.00;96750.41;5096558;28;20207;-68
2020/12/30 07:35:21;;;;;;;2.63;2.37;;;;;;;1.52;100.00;96758.81;5096257;28;20584;-69
2020/12/30 07:37:50;;;;;;;4.17;2.87;;;;;;;1.46;100.00;96753.09;5096446;28;20234;-68
2020/12/30 07:40:16;;;;;;;4.07;3.00;;;;;;;1.45;100.00;96762.69;5096493;28;20210;-68
2020/12/30 07:42:43;;;;;;;3.60;2.77;;;;;;;1.49;100.00;96772.03;5096459;28;20203;-68
2020/12/30 07:45:09;;;;;;;3.80;3.20;;;;;;;1.65;100.00;96778.03;5094382;28;20210;-68
2020/12/30 07:47:35;;;;;;;3.73;2.90;;;;;;;1.69;100.00;96778.72;5096219;28;20253;-68
2020/12/30 07:50:02;;;;;;;5.80;2.90;;;;;;;1.76;100.00;96782.66;5096255;28;20310;-68
2020/12/30 07:52:28;;;;;;;4.73;3.20;;;;;;;1.81;100.00;96785.84;5096202;28;20557;-69
2020/12/30 07:54:54;;;;;;;3.10;2.67;;;;;;;1.86;100.00;96789.03;5096139;28;20225;-68
2020/12/30 07:57:20;;;;;;;3.93;3.13;;;;;;;1.97;100.00;96792.69;5096105;28;20621;-68
2020/12/30 07:59:50;;;;;;;3.27;2.63;;;;;;;2.09;100.00;96793.78;5096132;28;20577;-69
2020/12/30 08:02:17;;;;;;;4.17;3.50;;;;;;;2.17;100.00;96789.81;5096071;28;20206;-69
2020/12/30 08:04:45;;;;;;;3.63;3.13;;;;;;;2.27;100.00;96796.16;5095662;28;20218;-68
2020/12/30 08:07:12;;;;;;;4.30;2.60;;;;;;;2.39;100.00;96790.25;5095937;28;20267;-68
2020/12/30 08:09:39;;;;;;;2.77;2.57;;;;;;;2.45;100.00;96799.50;5095896;28;20207;-68
2020/12/30 08:12:06;;;;;;;5.03;3.07;;;;;;;2.57;100.00;96812.63;5094014;28;20231;-69
2020/12/30 08:14:34;;;;;;;3.90;3.47;;;;;;;2.65;100.00;96813.03;5095717;28;20211;-69
2020/12/30 08:17:05;;;;;;;3.97;2.90;;;;;;;2.71;100.00;96815.28;5095342;28;20207;-69
2020/12/30 08:19:33;;;;;;;4.57;3.03;;;;;;;2.81;100.00;96813.78;5095560;28;20218;-68
2020/12/30 08:22:10;;;;;;;4.77;2.80;;;;;;;2.86;100.00;96816.13;5095537;28;20213;-69
2020/12/30 08:24:39;;;;;;;4.33;2.60;;;;;;;2.90;100.00;96815.03;5095278;28;20219;-68
2020/12/30 08:27:05;;;;;;;4.23;2.57;;;;;;;2.96;100.00;96825.94;5095335;28;20204;-68
2020/12/30 08:29:33;;;;;;;3.40;2.50;;;;;;;3.08;100.00;96817.38;5095172;28;20210;-68
2020/12/30 08:32:06;;;;;;;3.43;2.40;;;;;;;3.20;100.00;96816.63;5095722;28;20211;-68
2020/12/30 08:34:42;;;;;;;3.83;2.77;;;;;;;3.28;100.00;96819.59;5095122;28;20703;-68
2020/12/30 08:37:11;;;;;;;3.60;2.10;;;;;;;3.45;100.00;96829.84;5093222;28;20206;-68
2020/12/30 08:39:46;;;;;;;4.40;2.53;;;;;;;3.56;100.00;96832.63;5094641;28;20204;-68
2020/12/30 08:42:34;;;;;;;2.20;2.00;;;;;;;3.57;100.00;96829.09;5095116;28;20214;-68
2020/12/30 08:45:03;;;;;;;3.50;2.40;;;;;;;3.58;100.00;96837.75;5079311;28;20223;-67
2020/12/30 08:47:37;;;;;;;3.43;2.47;;;;;;;3.59;100.00;96842.03;5094157;28;20268;-68
2020/12/30 08:50:05;;;;;;;2.83;2.50;;;;;;;3.69;100.00;96841.41;5093993;28;20225;-67
2020/12/30 08:52:38;;;;;;;2.33;2.03;;;;;;;3.70;100.00;96850.06;5076461;28;20216;-67
2020/12/30 08:55:04;;;;;;;3.43;2.00;;;;;;;3.72;100.00;96841.19;5089119;28;20215;-67
2020/12/30 08:57:30;;;;;;;2.23;2.00;;;;;;;3.76;99.96;96842.69;5074075;28;20235;-67
2020/12/30 09:00:12;;;;;;;4.33;2.50;;;;;;;3.80;100.00;96836.31;5072980;28;20219;-66
2020/12/30 09:02:38;;;;;;;2.33;2.00;;;;;;;3.80;100.00;96849.38;5071831;28;20207;-66
2020/12/30 09:05:04;;;;;;;3.50;2.30;;;;;;;3.79;100.00;96860.78;5073560;28;20223;-66
2020/12/30 09:07:30;;;;;;;3.40;2.13;;;;;;;3.71;100.00;96855.19;5073051;28;20211;-67
2020/12/30 09:10:00;;;;;;;2.60;2.03;;;;;;;3.72;100.00;96856.03;5073841;28;20222;-67
2020/12/30 09:12:26;;;;;;;2.60;1.97;;;;;;;3.75;100.00;96851.47;5073464;28;20239;-67
2020/12/30 09:14:52;;;;;;;2.20;2.00;;;;;;;3.88;99.90;96851.53;5072519;28;20207;-66
2020/12/30 09:17:18;;;;;;;3.10;1.77;;;;;;;3.99;98.89;96857.78;5072576;28;20246;-68
2020/12/30 09:19:45;;;;;;;3.63;2.03;;;;;;;4.12;98.03;96858.66;5073481;28;20219;-67
2020/12/30 09:22:12;;;;;;;2.80;2.30;;;;;;;4.23;97.54;96857.97;5084382;28;20574;-67
2020/12/30 09:24:39;;;;;;;2.10;1.90;;;;;;;4.32;97.31;96860.81;5093230;28;20241;-66
2020/12/30 09:27:20;;;;;;;2.43;2.00;;;;;;;4.38;96.75;96868.28;5076819;28;20215;-66
2020/12/30 09:29:46;;;;;;;4.87;2.33;;;;;;;4.48;94.47;96868.53;5076001;28;20324;-67
2020/12/30 09:32:22;;;;;;;5.13;2.57;;;;;;;4.57;94.83;96871.38;5093618;28;20217;-67
2020/12/30 09:34:59;;;;;;;2.13;1.97;;;;;;;4.65;94.59;96871.69;5093439;28;20213;-68
2020/12/30 09:37:25;;;;;;;2.33;1.97;;;;;;;4.72;94.94;96865.16;5092299;28;20226;-66
2020/12/30 09:40:03;;;;;;;2.27;1.90;;;;;;;4.77;93.70;96870.88;5093984;28;20297;-66
2020/12/30 09:42:29;;;;;;;3.33;2.23;;;;;;;4.76;92.32;96877.06;5093839;28;20206;-66
2020/12/30 09:44:55;;;;;;;2.13;1.90;;;;;;;4.82;91.86;96876.66;5093480;28;20223;-67
2020/12/30 09:47:21;;;;;;;1.83;1.70;;;;;;;4.88;91.30;96873.63;5094040;28;20211;-66
2020/12/30 09:49:47;;;;;;;2.43;2.00;;;;;;;4.93;91.99;96882.03;5093328;28;20585;-66
2020/12/30 09:52:13;;;;;;;2.50;1.70;;;;;;;4.98;91.91;96879.94;5092675;28;20225;-66
2020/12/30 09:54:39;;;;;;;2.70;1.90;;;;;;;5.01;91.66;96881.53;5093548;28;20207;-66
2020/12/30 09:57:05;;;;;;;2.50;2.00;;;;;;;5.10;92.05;96873.03;5091562;28;20248;-67
2020/12/30 09:59:31;;;;;;;1.93;1.70;;;;;;;5.13;91.77;96884.16;5093192;28;20203;-67
2020/12/30 10:01:57;;;;;;;2.70;1.90;;;;;;;5.17;89.86;96890.88;5093483;28;20212;-66
2020/12/30 10:04:23;;;;;;;2.57;2.00;;;;;;;5.21;89.33;96892.34;5093530;28;20253;-66
2020/12/30 10:06:49;;;;;;;4.20;1.83;;;;;;;5.21;89.10;96887.09;5092992;28;20215;-66
2020/12/30 10:09:16;;;;;;;2.23;2.03;;;;;;;5.19;89.17;96883.72;5093341;28;20212;-66
2020/12/30 10:11:42;;;;;;;2.30;1.80;;;;;;;5.22;89.31;96887.94;5093231;28;20207;-66
2020/12/30 10:14:08;;;;;;;2.83;1.83;;;;;;;5.23;88.52;96884.38;5093089;28;20214;-66
2020/12/30 10:16:34;;;;;;;2.63;2.03;;;;;;;5.18;88.39;96882.06;5093128;28;20215;-66
2020/12/30 10:19:00;;;;;;;5.13;2.40;;;;;;;5.21;88.68;96887.09;5093092;28;20228;-67
2020/12/30 10:21:30;;;;;;;2.20;2.03;;;;;;;5.20;88.20;96882.78;5093151;28;20683;-67
2020/12/30 10:23:56;;;;;;;2.57;2.07;;;;;;;5.16;88.50;96883.94;5091547;28;20209;-66
2020/12/30 10:26:23;;;;;;;2.00;1.80;;;;;;;5.18;88.96;96886.44;5093148;28;20222;-66
2020/12/30 10:28:49;;;;;;;3.93;1.97;;;;;;;5.16;89.26;96886.56;5092768;28;20201;-67
2020/12/30 10:31:15;;;;;;;3.37;1.80;;;;;;;5.15;89.17;96891.91;5093026;28;20259;-66
2020/12/30 10:33:41;;;;;;;2.27;1.87;;;;;;;5.15;89.28;96890.13;5092780;28;20629;-66
2020/12/30 10:36:07;;;;;;;2.20;2.00;;;;;;;5.12;89.22;96890.31;5092896;28;20210;-66
2020/12/30 10:38:33;;;;;;;3.67;1.97;;;;;;;5.16;89.21;96889.19;5092804;28;20227;-67
2020/12/30 10:40:59;;;;;;;3.80;2.00;;;;;;;5.09;89.79;96898.41;5092923;28;20212;-68
2020/12/30 10:43:26;;;;;;;2.90;1.83;;;;;;;5.08;91.41;96899.31;5092635;28;20692;-66
2020/12/30 10:45:52;;;;;;;2.90;1.90;;;;;;;5.06;92.29;96901.22;5092818;28;20265;-66
2020/12/30 10:48:18;;;;;;;3.17;2.00;;;;;;;5.10;91.24;96904.47;5092462;28;20215;-66
2020/12/30 10:50:44;;;;;;;3.23;1.90;;;;;;;5.14;90.59;96906.75;5090818;28;20219;-67
2020/12/30 10:53:10;;;;;;;2.57;2.17;;;;;;;5.17;89.79;96903.97;5092832;28;20213;-66
2020/12/30 10:55:36;;;;;;;2.30;1.90;;;;;;;5.15;90.30;96903.22;5092771;28;20211;-66
2020/12/30 10:58:02;;;;;;;2.73;2.07;;;;;;;5.16;91.72;96904.91;5092618;28;20334;-66
2020/12/30 11:00:29;;;;;;;2.33;1.77;;;;;;;5.20;91.11;96906.34;5092360;28;20207;-65
2020/12/30 11:02:55;;;;;;;3.10;2.10;;;;;;;5.29;91.71;96903.13;5094056;28;20217;-66
2020/12/30 11:05:21;;;;;;;2.87;1.97;;;;;;;5.31;92.10;96903.03;5096679;28;20653;-66
2020/12/30 11:07:47;;;;;;;2.53;1.90;;;;;;;5.36;91.71;96907.00;5096633;28;20662;-65
2020/12/30 11:10:13;;;;;;;2.30;2.10;;;;;;;5.42;91.66;96901.34;5096297;28;20211;-65
2020/12/30 11:12:39;;;;;;;2.93;2.27;;;;;;;5.42;91.24;96905.75;5096477;28;20323;-65
2020/12/30 11:15:05;;;;;;;3.20;1.97;;;;;;;5.42;90.15;96911.84;5096003;28;20207;-66
2020/12/30 11:17:33;;;;;;;3.03;2.00;;;;;;;5.46;90.33;96904.59;5095668;28;20289;-66
2020/12/30 11:19:59;;;;;;;2.10;1.80;;;;;;;5.50;90.04;96913.94;5096085;28;20695;-66
2020/12/30 11:22:25;;;;;;;2.47;1.90;;;;;;;5.46;90.50;96902.84;5096336;28;20210;-66
2020/12/30 11:24:51;;;;;;;3.03;1.80;;;;;;;5.45;89.84;96909.00;5096202;28;20213;-65
2020/12/30 11:27:17;;;;;;;2.67;1.90;;;;;;;5.49;89.42;96904.41;5096272;28;20221;-66
2020/12/30 11:29:43;;;;;;;1.80;1.50;;;;;;;5.52;89.76;96909.41;5096282;28;20204;-66
2020/12/30 11:32:10;;;;;;;1.87;1.50;;;;;;;5.60;89.77;96905.34;5095989;28;20242;-67
2020/12/30 11:34:37;;;;;;;2.00;1.80;;;;;;;5.63;89.43;96902.47;5096267;28;20274;-66
2020/12/30 11:37:02;;;;;;;2.10;1.77;;;;;;;5.71;89.36;96908.06;5096347;28;20240;-66